Vigus, Missouri
Current Conditions -  °F | °C
As of 1:51 AM on Thursday 23 Oct 2014 (Local Time) from KSTL Reporting Station
Few Clouds Few Clouds  
Wind Chill: 44°   Ceiling: Unl
Heat Index: 46°   Visibility: 10mi
Dew Point: 39°   Wind: 5mph
Humidity: 76%   Direction: 120°ESE
Pressure: 30.22"   Gusts: NA
Location:  38.7849°N, 90.3852°W
Report Text: KSTL 230651Z 12004KT 10SM FEW250 08/04 A3022 RMK AO2 SLP233 T00780039
Loading
Personal Weather Stations






























Interactive Weather Map
Tropical Storm Tracking
New forecast layout! Learn more

10-Day Weather Forecast

Advertisements
Track Severe Weather on mobile